sensor_id;sensor_type;location;lat;lon;timestamp;pressure;altitude;pressure_sealevel;temperature;humidity
24302;BME280;12421;49.732;20.078;2023-06-10T00:02:28;96512.88;;;16.76;100.00
24302;BME280;12421;49.732;20.078;2023-06-10T00:12:32;96519.54;;;16.64;100.00
24302;BME280;12421;49.732;20.078;2023-06-10T00:23:05;96519.21;;;16.51;100.00
24302;BME280;12421;49.732;20.078;2023-06-10T00:33:11;96512.61;;;16.65;100.00
24302;BME280;12421;49.732;20.078;2023-06-10T00:43:15;96509.42;;;16.60;100.00
24302;BME280;12421;49.732;20.078;2023-06-10T00:53:18;96511.66;;;16.49;100.00
24302;BME280;12421;49.732;20.078;2023-06-10T01:03:22;96519.75;;;16.50;100.00
24302;BME280;12421;49.732;20.078;2023-06-10T01:13:27;96531.68;;;16.31;100.00
24302;BME280;12421;49.732;20.078;2023-06-10T01:23:34;96534.98;;;16.33;100.00
24302;BME280;12421;49.732;20.078;2023-06-10T01:33:42;96541.11;;;16.43;100.00
24302;BME280;12421;49.732;20.078;2023-06-10T01:44:11;96547.70;;;16.47;100.00
24302;BME280;12421;49.732;20.078;2023-06-10T01:54:15;96547.59;;;16.54;100.00
24302;BME280;12421;49.732;20.078;2023-06-10T02:04:21;96548.08;;;16.60;100.00
24302;BME280;12421;49.732;20.078;2023-06-10T02:14:50;96542.90;;;16.66;100.00
24302;BME280;12421;49.732;20.078;2023-06-10T02:24:53;96543.90;;;16.67;100.00
24302;BME280;12421;49.732;20.078;2023-06-10T02:34:58;96545.21;;;16.61;100.00
24302;BME280;12421;49.732;20.078;2023-06-10T02:45:28;96541.31;;;16.56;100.00
24302;BME280;12421;49.732;20.078;2023-06-10T02:55:57;96547.57;;;16.51;100.00
24302;BME280;12421;49.732;20.078;2023-06-10T03:06:01;96547.85;;;16.66;100.00
24302;BME280;12421;49.732;20.078;2023-06-10T03:16:05;96553.40;;;16.73;100.00
24302;BME280;12421;49.732;20.078;2023-06-10T03:26:10;96564.40;;;16.69;100.00
24302;BME280;12421;49.732;20.078;2023-06-10T03:36:16;96566.66;;;16.74;100.00
24302;BME280;12421;49.732;20.078;2023-06-10T03:46:20;96567.64;;;16.76;100.00
24302;BME280;12421;49.732;20.078;2023-06-10T03:56:24;96576.88;;;16.84;100.00
24302;BME280;12421;49.732;20.078;2023-06-10T04:06:27;96580.64;;;17.00;100.00
24302;BME280;12421;49.732;20.078;2023-06-10T04:16:57;96580.34;;;17.15;100.00
24302;BME280;12421;49.732;20.078;2023-06-10T04:27:01;96578.62;;;17.27;100.00
24302;BME280;12421;49.732;20.078;2023-06-10T04:37:05;96580.81;;;17.46;100.00
24302;BME280;12421;49.732;20.078;2023-06-10T04:47:10;96589.54;;;17.54;100.00
24302;BME280;12421;49.732;20.078;2023-06-10T04:57:14;96592.48;;;17.67;100.00
24302;BME280;12421;49.732;20.078;2023-06-10T05:07:17;96599.95;;;17.67;100.00
24302;BME280;12421;49.732;20.078;2023-06-10T05:17:20;96605.27;;;17.79;100.00
24302;BME280;12421;49.732;20.078;2023-06-10T05:27:23;96610.59;;;17.79;100.00
24302;BME280;12421;49.732;20.078;2023-06-10T05:37:27;96616.80;;;18.03;100.00
24302;BME280;12421;49.732;20.078;2023-06-10T05:47:56;96614.56;;;18.40;100.00
24302;BME280;12421;49.732;20.078;2023-06-10T05:58:00;96622.31;;;18.37;100.00
24302;BME280;12421;49.732;20.078;2023-06-10T06:08:04;96633.66;;;17.96;100.00
24302;BME280;12421;49.732;20.078;2023-06-10T06:18:08;96634.61;;;17.98;100.00
24302;BME280;12421;49.732;20.078;2023-06-10T06:28:11;96635.27;;;17.99;100.00
24302;BME280;12421;49.732;20.078;2023-06-10T06:38:15;96636.18;;;18.11;100.00
24302;BME280;12421;49.732;20.078;2023-06-10T06:48:18;96651.58;;;18.31;100.00
24302;BME280;12421;49.732;20.078;2023-06-10T06:58:21;96663.73;;;18.14;99.94
24302;BME280;12421;49.732;20.078;2023-06-10T07:08:25;96668.60;;;17.81;100.00
24302;BME280;12421;49.732;20.078;2023-06-10T07:18:28;96681.42;;;17.55;100.00
24302;BME280;12421;49.732;20.078;2023-06-10T07:28:32;96687.91;;;17.39;100.00
24302;BME280;12421;49.732;20.078;2023-06-10T07:38:36;96687.97;;;17.55;100.00
24302;BME280;12421;49.732;20.078;2023-06-10T07:48:40;96688.76;;;18.23;99.90
24302;BME280;12421;49.732;20.078;2023-06-10T07:58:43;96700.15;;;18.99;97.09
24302;BME280;12421;49.732;20.078;2023-06-10T08:08:46;96706.63;;;20.04;90.95
24302;BME280;12421;49.732;20.078;2023-06-10T08:18:50;96716.77;;;21.01;84.27
24302;BME280;12421;49.732;20.078;2023-06-10T08:28:57;96722.20;;;22.05;78.06
24302;BME280;12421;49.732;20.078;2023-06-10T08:39:01;96718.52;;;22.54;75.33
24302;BME280;12421;49.732;20.078;2023-06-10T08:49:06;96721.15;;;22.67;73.45
24302;BME280;12421;49.732;20.078;2023-06-10T08:59:11;96722.44;;;22.66;73.90
24302;BME280;12421;49.732;20.078;2023-06-10T09:09:15;96720.84;;;23.02;71.52
24302;BME280;12421;49.732;20.078;2023-06-10T09:19:19;96716.77;;;23.02;70.86
24302;BME280;12421;49.732;20.078;2023-06-10T09:29:24;96715.23;;;23.31;69.87
24302;BME280;12421;49.732;20.078;2023-06-10T09:39:28;96713.31;;;23.58;67.36
24302;BME280;12421;49.732;20.078;2023-06-10T09:49:31;96716.02;;;23.52;67.99
24302;BME280;12421;49.732;20.078;2023-06-10T09:59:37;96711.10;;;23.20;67.36
24302;BME280;12421;49.732;20.078;2023-06-10T10:09:41;96714.00;;;23.06;67.76
24302;BME280;12421;49.732;20.078;2023-06-10T10:19:53;96707.01;;;22.61;68.72
24302;BME280;12421;49.732;20.078;2023-06-10T10:30:25;96708.63;;;22.20;69.55
24302;BME280;12421;49.732;20.078;2023-06-10T10:40:31;96701.95;;;22.27;70.14
24302;BME280;12421;49.732;20.078;2023-06-10T10:50:36;96688.79;;;22.69;70.22
24302;BME280;12421;49.732;20.078;2023-06-10T11:00:44;96690.04;;;23.41;67.46
24302;BME280;12421;49.732;20.078;2023-06-10T11:10:51;96682.67;;;22.83;66.07
24302;BME280;12421;49.732;20.078;2023-06-10T11:21:02;96678.58;;;23.24;66.45
24302;BME280;12421;49.732;20.078;2023-06-10T11:31:18;96679.90;;;23.51;64.95
24302;BME280;12421;49.732;20.078;2023-06-10T11:41:26;96698.14;;;22.99;67.47
24302;BME280;12421;49.732;20.078;2023-06-10T11:51:36;96696.39;;;21.76;69.93
24302;BME280;12421;49.732;20.078;2023-06-10T12:01:44;96702.77;;;20.64;72.08
24302;BME280;12421;49.732;20.078;2023-06-10T12:11:51;96715.51;;;19.92;73.67
24302;BME280;12421;49.732;20.078;2023-06-10T12:22:00;96725.25;;;19.65;75.61
24302;BME280;12421;49.732;20.078;2023-06-10T12:32:04;96720.48;;;19.20;79.74
24302;BME280;12421;49.732;20.078;2023-06-10T12:42:12;96716.87;;;18.80;82.38
24302;BME280;12421;49.732;20.078;2023-06-10T12:52:18;96706.42;;;18.87;83.13
24302;BME280;12421;49.732;20.078;2023-06-10T13:02:21;96702.60;;;18.89;83.81
24302;BME280;12421;49.732;20.078;2023-06-10T13:12:27;96707.86;;;19.24;83.31
24302;BME280;12421;49.732;20.078;2023-06-10T13:22:49;96722.19;;;19.29;81.72
24302;BME280;12421;49.732;20.078;2023-06-10T13:32:53;96725.64;;;19.36;79.85
24302;BME280;12421;49.732;20.078;2023-06-10T13:42:56;96724.73;;;19.43;79.66
24302;BME280;12421;49.732;20.078;2023-06-10T13:53:27;96726.45;;;19.59;79.60
24302;BME280;12421;49.732;20.078;2023-06-10T14:03:30;96714.79;;;20.12;79.50
24302;BME280;12421;49.732;20.078;2023-06-10T14:13:34;96705.44;;;20.64;77.40
24302;BME280;12421;49.732;20.078;2023-06-10T14:23:37;96703.92;;;20.92;76.70
24302;BME280;12421;49.732;20.078;2023-06-10T14:33:40;96707.05;;;21.22;75.27
24302;BME280;12421;49.732;20.078;2023-06-10T14:43:46;96700.77;;;21.13;74.70
24302;BME280;12421;49.732;20.078;2023-06-10T14:53:49;96706.05;;;20.95;74.74
24302;BME280;12421;49.732;20.078;2023-06-10T15:03:53;96704.15;;;20.81;75.00
24302;BME280;12421;49.732;20.078;2023-06-10T15:13:57;96700.96;;;20.64;74.34
24302;BME280;12421;49.732;20.078;2023-06-10T15:24:00;96707.84;;;20.26;73.49
24302;BME280;12421;49.732;20.078;2023-06-10T15:34:04;96700.83;;;20.17;74.29
24302;BME280;12421;49.732;20.078;2023-06-10T15:44:10;96703.17;;;20.27;74.20
24302;BME280;12421;49.732;20.078;2023-06-10T15:54:13;96706.21;;;20.30;73.23
24302;BME280;12421;49.732;20.078;2023-06-10T16:04:16;96717.67;;;20.23;72.17
24302;BME280;12421;49.732;20.078;2023-06-10T16:14:20;96721.84;;;20.07;71.90
24302;BME280;12421;49.732;20.078;2023-06-10T16:24:24;96725.83;;;19.99;71.96
24302;BME280;12421;49.732;20.078;2023-06-10T16:34:28;96735.20;;;20.55;71.85
24302;BME280;12421;49.732;20.078;2023-06-10T16:44:32;96738.35;;;20.92;70.82
24302;BME280;12421;49.732;20.078;2023-06-10T16:54:35;96741.13;;;20.87;69.55
24302;BME280;12421;49.732;20.078;2023-06-10T17:04:38;96747.64;;;20.42;70.04
24302;BME280;12421;49.732;20.078;2023-06-10T17:15:07;96757.08;;;19.97;70.72
24302;BME280;12421;49.732;20.078;2023-06-10T17:25:11;96768.48;;;19.52;70.96
24302;BME280;12421;49.732;20.078;2023-06-10T17:35:15;96780.41;;;19.17;72.54
24302;BME280;12421;49.732;20.078;2023-06-10T17:45:19;96793.93;;;18.87;73.57
24302;BME280;12421;49.732;20.078;2023-06-10T17:55:23;96795.23;;;18.70;74.61
24302;BME280;12421;49.732;20.078;2023-06-10T18:05:26;96801.02;;;18.60;75.26
24302;BME280;12421;49.732;20.078;2023-06-10T18:15:30;96806.10;;;18.47;75.76
24302;BME280;12421;49.732;20.078;2023-06-10T18:25:34;96817.58;;;18.27;76.26
24302;BME280;12421;49.732;20.078;2023-06-10T18:36:03;96818.70;;;18.05;76.93
24302;BME280;12421;49.732;20.078;2023-06-10T18:46:06;96826.70;;;17.92;77.63
24302;BME280;12421;49.732;20.078;2023-06-10T18:56:10;96828.65;;;17.84;78.27
24302;BME280;12421;49.732;20.078;2023-06-10T19:06:16;96832.89;;;17.76;78.76
24302;BME280;12421;49.732;20.078;2023-06-10T19:16:19;96834.92;;;17.69;78.93
24302;BME280;12421;49.732;20.078;2023-06-10T19:26:23;96842.29;;;17.63;79.56
24302;BME280;12421;49.732;20.078;2023-06-10T19:36:26;96844.52;;;17.56;79.76
24302;BME280;12421;49.732;20.078;2023-06-10T19:46:29;96851.05;;;17.44;80.09
24302;BME280;12421;49.732;20.078;2023-06-10T19:56:33;96858.26;;;17.31;79.87
24302;BME280;12421;49.732;20.078;2023-06-10T20:06:38;96865.54;;;17.22;79.95
24302;BME280;12421;49.732;20.078;2023-06-10T20:16:41;96870.82;;;17.19;80.17
24302;BME280;12421;49.732;20.078;2023-06-10T20:26:45;96877.54;;;17.15;80.76
24302;BME280;12421;49.732;20.078;2023-06-10T20:36:49;96879.05;;;17.12;80.68
24302;BME280;12421;49.732;20.078;2023-06-10T20:46:53;96881.52;;;17.03;80.94
24302;BME280;12421;49.732;20.078;2023-06-10T20:56:56;96878.34;;;16.94;81.48
24302;BME280;12421;49.732;20.078;2023-06-10T21:07:00;96881.66;;;16.80;82.07
24302;BME280;12421;49.732;20.078;2023-06-10T21:17:03;96884.55;;;16.53;82.83
24302;BME280;12421;49.732;20.078;2023-06-10T21:27:07;96872.94;;;16.35;83.40
24302;BME280;12421;49.732;20.078;2023-06-10T21:37:11;96875.08;;;16.24;83.94
24302;BME280;12421;49.732;20.078;2023-06-10T21:47:16;96879.60;;;16.11;84.00
24302;BME280;12421;49.732;20.078;2023-06-10T21:57:44;96890.67;;;16.03;84.44
24302;BME280;12421;49.732;20.078;2023-06-10T22:07:49;96887.34;;;15.97;85.12
24302;BME280;12421;49.732;20.078;2023-06-10T22:17:52;96883.90;;;15.89;85.98
24302;BME280;12421;49.732;20.078;2023-06-10T22:27:56;96877.42;;;15.81;86.07
24302;BME280;12421;49.732;20.078;2023-06-10T22:37:59;96866.27;;;15.76;86.32
24302;BME280;12421;49.732;20.078;2023-06-10T22:48:03;96865.30;;;15.78;86.40
24302;BME280;12421;49.732;20.078;2023-06-10T22:58:06;96872.85;;;15.80;86.38
24302;BME280;12421;49.732;20.078;2023-06-10T23:08:09;96882.59;;;15.80;86.54
24302;BME280;12421;49.732;20.078;2023-06-10T23:18:38;96868.10;;;15.79;86.62
24302;BME280;12421;49.732;20.078;2023-06-10T23:28:43;96869.73;;;15.78;86.63
24302;BME280;12421;49.732;20.078;2023-06-10T23:38:47;96863.94;;;15.82;86.56
24302;BME280;12421;49.732;20.078;2023-06-10T23:48:51;96856.23;;;15.80;86.50
24302;BME280;12421;49.732;20.078;2023-06-10T23:58:56;96859.20;;;15.81;86.65
